• Join FlightAware (Why Join?)
  • Login
  • US Flag 
12:52PM EDT


 

Airport Tracker/Info


-or-


 

Live Flight TrackerFlight Track Log ✈ N332DE ✈ 01-May-2013 ✈ KGRB - KANE

Flight Track Log - Related Links

Times and Time Zones

All times are in EDT time to prevent confusion due to time zone crossing. See the N332DE flight status page for this flight to view local times or setup timezone preferences in your user account.

Time Position Orientation Groundspeed Altitude Reporting Facility
EDT Latitude Longitude Course Direction KTS MPH feet Rate Location/Type
05:00PM 44.5469 -88.2244 286° West 188 216 4,900  Level Minneapolis Center
05:01PM 44.5547 -88.2878 280° West 178 205 6,100 1,200 Climbing Minneapolis Center
05:02PM 44.5592 -88.3506 276° West 166 191 7,400 1,020 Climbing Minneapolis Center
05:03PM 44.5678 -88.4206 280° West 179 206 8,300 1,200 Climbing Minneapolis Center
05:04PM 44.5321 -88.5723 279° West  Level FlightAware Approximate
05:04PM 44.5800 -88.4861 285° West 176 203 9,900  Level Minneapolis Center
05:05PM 44.5460 -88.6465 286° West  Level FlightAware Approximate
05:05PM 44.5944 -88.5547 286° West 160 184 11,700  Level Minneapolis Center
05:06PM 44.6067 -88.6117 287° West 154 177 12,700 960 Climbing Minneapolis Center
05:07PM 44.6139 -88.6744 279° West 161 185 13,700 960 Climbing Minneapolis Center
05:08PM 44.6211 -88.7383 279° West 165 190 14,700 840 Climbing Minneapolis Center
05:09PM 44.6281 -88.8014 279° West 164 189 15,500 600 Climbing Minneapolis Center
05:10PM 44.6331 -88.8794 275° West 171 197 16,000 240 Climbing Minneapolis Center
05:11PM 44.6392 -88.9558 276° West 191 220 16,000 -60 Level Minneapolis Center
05:12PM 44.6531 -89.0439 283° West 216 249 15,900 -60 Descending Minneapolis Center
05:13PM 44.6650 -89.1308 281° West 218 251 15,900  Level Minneapolis Center
05:14PM 44.6778 -89.2278 281° West 210 242 15,900  Level Minneapolis Center
05:16PM 44.6894 -89.3086 282° West 205 236 15,900  Level Minneapolis Center
05:17PM 44.6981 -89.3900 278° West 202 232 15,900  Level Minneapolis Center
05:18PM 44.7064 -89.4719 278° West 202 232 15,900  Level Minneapolis Center
05:19PM 44.7156 -89.5533 279° West 203 234 15,900  Level Minneapolis Center
05:20PM 44.7247 -89.6258 280° West 197 227 15,900  Level Minneapolis Center
05:21PM 44.7394 -89.7056 285° West 200 230 15,900  Level Minneapolis Center
05:22PM 44.7544 -89.7847 285° West 201 231 15,900  Level Minneapolis Center
05:23PM 44.7694 -89.8633 285° West 199 229 15,900  Level Minneapolis Center
05:24PM 44.7817 -89.9428 282° West 202 232 15,900  Level Minneapolis Center
05:25PM 44.7947 -90.0225 283° West 200 230 15,900  Level Minneapolis Center
05:26PM 44.8081 -90.1031 283° West 203 234 15,900  Level Minneapolis Center
05:27PM 44.8217 -90.1828 284° West 200 230 15,900  Level Minneapolis Center
05:28PM 44.8325 -90.2581 281° West 203 234 15,900  Level Minneapolis Center
05:29PM 44.8453 -90.3361 283° West 199 229 15,900 -60 Level Minneapolis Center
05:30PM 44.8575 -90.4167 282° West 202 232 15,800 -60 Descending Minneapolis Center
05:31PM 44.8694 -90.4958 282° West 200 230 15,800  Level Minneapolis Center
05:32PM 44.8817 -90.5769 282° West 202 232 15,900  Climbing Minneapolis Center
05:33PM 44.8950 -90.6556 283° West 198 228 15,900  Level Minneapolis Center
05:34PM 44.9067 -90.7350 282° West 200 230 15,900  Level Minneapolis Center
05:35PM 44.9178 -90.8075 282° West 198 228 15,900  Level Minneapolis Center
05:36PM 44.9297 -90.8872 282° West 198 228 15,900  Level Minneapolis Center
05:37PM 44.9408 -90.9653 281° West 197 227 15,900  Level Minneapolis Center
05:38PM 44.9528 -91.0436 282° West 195 224 15,900  Level Minneapolis Center
05:39PM 44.9647 -91.1194 283° West 192 221 15,900  Level Minneapolis Center
05:40PM 44.9758 -91.1961 282° West 192 221 15,900  Level Minneapolis Center
05:41PM 44.9869 -91.2675 282° West 194 223 15,900  Level Minneapolis Center
05:42PM 44.9989 -91.3428 283° West 190 219 15,900  Level Minneapolis Center
05:43PM 45.0119 -91.4181 284° West 190 219 15,900  Level Minneapolis Center
05:44PM 45.0264 -91.4931 285° West 189 217 15,900  Level Minneapolis Center
05:45PM 45.0392 -91.5683 284° West 190 219 15,900 -180 Level Minneapolis Center
05:47PM 45.0525 -91.6425 284° West 195 224 15,600 -720 Descending Minneapolis Center
05:48PM 45.0644 -91.7283 281° West 206 237 14,500 -1,080 Descending Minneapolis Center
05:49PM 45.0739 -91.8131 279° West 216 249 13,400 -1,200 Descending Minneapolis Center
05:50PM 45.0856 -91.8958 281° West 217 250 12,100 -1,500 Descending Minneapolis Center
05:51PM 45.0983 -91.9814 282° West 222 255 10,400 -1,380 Descending Minneapolis Center
05:52PM 45.1083 -92.0675 279° West 224 258 9,300 -1,020 Descending Minneapolis Center
05:53PM 45.1086 -92.1494 270° West 213 245 8,300 -1,080 Descending Minneapolis Center
05:54PM 45.1144 -92.2483 275° West 212 244 7,200 -960 Descending Minneapolis Center
05:55PM 45.1208 -92.3333 276° West 217 250 6,400 -600 Descending Minneapolis Center
05:56PM 45.1311 -92.4106 281° West 204 235 6,000 -240 Descending Minneapolis Center
05:57PM 45.1342 -92.4850 273° West 194 223 6,000  Level Minneapolis Center
05:58PM 45.1361 -92.5619 272° West 197 227 6,000  Level Minneapolis Center
05:59PM 45.1372 -92.6386 271° West 196 226 6,000 -360 Level Minneapolis Center
06:00PM 45.1367 -92.7144 269° West 164 189 5,300 -600 Descending Minneapolis Center
06:01PM 45.1356 -92.7756 269° West 157 181 4,800 -540 Descending Minneapolis Center
06:02PM 45.1369 -92.8414 272° West 166 191 4,300 -540 Descending Minneapolis Center
06:03PM 45.1408 -92.9131 274° West 181 208 3,800 -480 Descending Minneapolis Center
06:04PM 45.1428 -92.9869 272° West 187 215 3,400 -540 Descending Minneapolis Center
06:05PM 45.1431 -93.0703 270° West 179 206 2,800 -660 Descending Minneapolis Center
06:06PM 45.1436 -93.1328 271° West 163 188 2,100 -720 Descending Minneapolis Center
06:07PM 45.1447 -93.1811 272° West 129 148 1,400 -480 Descending Minneapolis Center
06:08PM 45.1444 -93.2231 269° West 122 140 1,200 -240 Descending Minneapolis Center
06:10PM 45.1449 -93.2102 270° West  Level Estimated